Time;durP1;ratioP1;P1;durP2;ratioP2;P2;SDS_P1;SDS_P2;PMS_P1;PMS_P2;Temp;Humidity;BMP_temperature;BMP_pressure;BME280_temperature;BME280_humidity;BME280_pressure;Samples;Min_cycle;Max_cycle;Signal;HPM_P1;HPM_P2
2022/01/30 00:00:28;;;;;;;101.95;76.10;;;;;;;;;;7332070;19;162521;-14
2022/01/30 00:03:02;;;;;;;101.13;79.53;;;;;;;;;;7327848;19;154073;-13
2022/01/30 00:05:34;;;;;;;95.88;74.05;;;;;;;;;;7334307;19;153806;-20
2022/01/30 00:08:06;;;;;;;94.75;74.03;;;;;;;;;;7330190;19;162368;-14
2022/01/30 00:10:40;;;;;;;93.78;72.82;;;;;;;;;;7330069;19;162438;-14
2022/01/30 00:13:14;;;;;;;92.47;71.32;;;;;;;;;;7332593;19;154462;-15
2022/01/30 00:15:49;;;;;;;93.88;70.22;;;;;;;;;;7328327;19;153747;-15
2022/01/30 00:21:12;;;;;;;94.70;71.97;;;;;;;;;;7329705;19;162743;-14
2022/01/30 00:23:48;;;;;;;95.65;71.50;;;;;;;;;;7330687;19;153985;-15
2022/01/30 00:26:20;;;;;;;94.47;71.05;;;;;;;;;;7331619;19;153732;-13
2022/01/30 00:28:51;;;;;;;93.33;71.03;;;;;;;;;;7334208;19;161846;-13
2022/01/30 00:31:24;;;;;;;90.78;70.10;;;;;;;;;;7330300;19;162345;-12
2022/01/30 00:34:01;;;;;;;95.55;72.10;;;;;;;;;;7332700;19;154091;-14
2022/01/30 00:36:33;;;;;;;60.33;46.28;;;;;;;;;;7327759;19;153313;-13
2022/01/30 00:39:05;;;;;;;57.90;42.97;;;;;;;;;;7326205;19;161711;-13
2022/01/30 00:41:36;;;;;;;56.03;42.95;;;;;;;;;;7327449;19;162308;-13
2022/01/30 00:44:08;;;;;;;64.00;48.92;;;;;;;;;;7329969;19;154116;-13
2022/01/30 10:28:11;;;;;;;8.82;7.93;;;;;;;;;;7370644;19;132825;-14
2022/01/30 10:30:44;;;;;;;8.40;7.43;;;;;;;;;;7364699;19;153876;-14
2022/01/30 10:33:16;;;;;;;9.20;6.97;;;;;;;;;;7366418;19;162117;-14
2022/01/30 10:35:58;;;;;;;14.47;6.83;;;;;;;;;;7362526;19;162372;-15
2022/01/30 10:38:35;;;;;;;9.20;7.57;;;;;;;;;;7368094;19;153985;-15
2022/01/30 10:41:14;;;;;;;8.43;6.85;;;;;;;;;;7360896;19;153554;-14
2022/01/30 10:43:58;;;;;;;7.82;7.03;;;;;;;;;;7363262;19;162189;-15
2022/01/30 10:46:29;;;;;;;;;;;;;;;;;;7363783;19;162367;-14
2022/01/30 10:49:02;;;;;;;13.02;7.18;;;;;;;;;;7363615;19;154331;-15
2022/01/30 10:51:34;;;;;;;10.43;6.97;;;;;;;;;;7363144;19;153689;-15
2022/01/30 10:54:09;;;;;;;9.00;8.00;;;;;;;;;;7361631;19;161783;-15
2022/01/30 10:56:42;;;;;;;9.50;6.93;;;;;;;;;;7361708;19;162590;-15
2022/01/30 10:59:17;;;;;;;7.95;6.75;;;;;;;;;;7363644;19;153920;-14
2022/01/30 11:01:50;;;;;;;7.97;7.18;;;;;;;;;;7361993;19;153464;-15
2022/01/30 11:04:24;;;;;;;;;;;;;;;;;;7364402;19;161856;-15
2022/01/30 11:06:56;;;;;;;8.43;7.05;;;;;;;;;;7361565;19;162724;-14
2022/01/30 11:09:33;;;;;;;7.68;6.88;;;;;;;;;;7362819;19;154410;-16
2022/01/30 11:12:12;;;;;;;8.52;7.00;;;;;;;;;;7362632;19;153585;-14
2022/01/30 11:15:04;;;;;;;9.30;6.97;;;;;;;;;;7362408;19;161687;-13
2022/01/30 11:17:36;;;;;;;8.60;7.72;;;;;;;;;;7360403;19;162359;-16
2022/01/30 11:20:08;;;;;;;8.32;6.90;;;;;;;;;;7363356;19;154004;-15
2022/01/30 11:22:41;;;;;;;12.90;7.00;;;;;;;;;;7364270;19;153817;-14
2022/01/30 11:25:15;;;;;;;7.85;6.85;;;;;;;;;;7365706;19;162109;-14
2022/01/30 11:27:47;;;;;;;8.13;6.68;;;;;;;;;;7347964;19;162378;-15
2022/01/30 11:30:26;;;;;;;10.82;7.78;;;;;;;;;;7336790;19;153992;-15
2022/01/30 11:32:58;;;;;;;8.00;7.20;;;;;;;;;;7335719;19;153878;-15
2022/01/30 11:35:30;;;;;;;8.02;7.22;;;;;;;;;;7336617;19;161823;-14
2022/01/30 11:38:01;;;;;;;9.02;7.47;;;;;;;;;;7334456;19;162455;-14
2022/01/30 11:40:32;;;;;;;8.70;7.80;;;;;;;;;;7333483;19;154094;-15
2022/01/30 11:43:10;;;;;;;9.02;7.43;;;;;;;;;;7333107;19;154143;-14
2022/01/30 11:45:44;;;;;;;8.13;7.20;;;;;;;;;;7332879;19;161840;-15
2022/01/30 11:48:18;;;;;;;8.20;7.22;;;;;;;;;;7332967;19;162347;-15
2022/01/30 11:51:04;;;;;;;8.35;7.50;;;;;;;;;;7333171;19;154007;-14
2022/01/30 11:53:37;;;;;;;8.75;7.60;;;;;;;;;;7332801;19;153866;-15
2022/01/30 11:56:08;;;;;;;7.88;7.07;;;;;;;;;;7332388;19;161830;-15
2022/01/30 11:58:46;;;;;;;8.23;7.43;;;;;;;;;;7332284;19;162403;-15
2022/01/30 12:01:38;;;;;;;9.13;7.70;;;;;;;;;;7332876;19;154010;-14
2022/01/30 12:04:13;;;;;;;8.80;7.90;;;;;;;;;;7332445;19;153687;-15
2022/01/30 12:06:50;;;;;;;8.82;7.82;;;;;;;;;;7332410;19;162045;-15
2022/01/30 12:09:27;;;;;;;9.90;8.00;;;;;;;;;;7332213;19;162584;-14
2022/01/30 12:12:09;;;;;;;8.82;7.82;;;;;;;;;;7332393;19;154082;-15
2022/01/30 12:14:49;;;;;;;8.88;7.78;;;;;;;;;;7332661;19;153498;-14
2022/01/30 12:17:51;;;;;;;9.18;7.70;;;;;;;;;;7331355;19;161977;-15
2022/01/30 12:20:24;;;;;;;7.90;7.18;;;;;;;;;;7333574;19;162597;-15
2022/01/30 12:22:56;;;;;;;7.80;7.10;;;;;;;;;;7335349;19;154011;-14
2022/01/30 12:25:39;;;;;;;8.70;7.78;;;;;;;;;;7335048;19;153672;-15
2022/01/30 12:28:15;;;;;;;9.13;8.23;;;;;;;;;;7335012;19;161764;-15
2022/01/30 12:30:52;;;;;;;9.68;8.38;;;;;;;;;;7333694;19;162513;-18
2022/01/30 12:33:42;;;;;;;9.50;8.15;;;;;;;;;;7334571;19;153928;-15
2022/01/30 12:36:22;;;;;;;9.43;8.50;;;;;;;;;;7333641;19;153638;-15
2022/01/30 12:39:05;;;;;;;9.38;8.40;;;;;;;;;;7329720;19;161953;-13
2022/01/30 12:41:39;;;;;;;9.70;8.70;;;;;;;;;;7334617;19;162721;-15
2022/01/30 12:44:11;;;;;;;10.13;9.13;;;;;;;;;;7331694;19;154040;-14
2022/01/30 12:46:46;;;;;;;11.25;8.73;;;;;;;;;;7331513;19;153543;-14
2022/01/30 12:49:22;;;;;;;9.10;8.20;;;;;;;;;;7330974;19;161798;-15
2022/01/30 12:51:55;;;;;;;11.13;8.07;;;;;;;;;;7330951;19;162472;-15
2022/01/30 12:54:29;;;;;;;8.80;7.90;;;;;;;;;;7331254;19;153924;-16
2022/01/30 12:57:00;;;;;;;9.50;8.02;;;;;;;;;;7331017;19;153544;-14
2022/01/30 12:59:32;;;;;;;9.40;8.25;;;;;;;;;;7331136;19;161807;-15
2022/01/30 13:02:07;;;;;;;7.68;6.88;;;;;;;;;;7331187;19;162768;-15
2022/01/30 13:04:41;;;;;;;8.80;7.78;;;;;;;;;;7330890;19;153932;-15
2022/01/30 13:07:15;;;;;;;8.73;7.82;;;;;;;;;;7331340;19;153591;-16
2022/01/30 13:09:46;;;;;;;9.05;7.80;;;;;;;;;;7330661;19;161784;-15
2022/01/30 13:12:19;;;;;;;8.75;7.85;;;;;;;;;;7330624;19;162470;-16
2022/01/30 13:14:50;;;;;;;8.38;7.47;;;;;;;;;;7331050;19;153916;-14
2022/01/30 13:17:30;;;;;;;10.20;7.38;;;;;;;;;;7330464;19;153785;-15
2022/01/30 13:20:05;;;;;;;8.35;7.53;;;;;;;;;;7328213;19;161819;-15
2022/01/30 13:22:40;;;;;;;8.45;7.53;;;;;;;;;;7330549;19;162556;-14
2022/01/30 13:25:14;;;;;;;8.10;7.20;;;;;;;;;;7330686;19;154158;-15
2022/01/30 13:27:46;;;;;;;10.95;8.10;;;;;;;;;;7327547;19;154397;-15
2022/01/30 13:30:23;;;;;;;8.38;7.45;;;;;;;;;;7328782;19;161579;-14
2022/01/30 13:32:55;;;;;;;8.43;7.45;;;;;;;;;;7329941;19;162293;-15
2022/01/30 13:35:31;;;;;;;7.63;6.82;;;;;;;;;;7330159;19;153976;-16
2022/01/30 13:38:06;;;;;;;9.90;7.88;;;;;;;;;;7329223;19;153540;-15
2022/01/30 13:40:43;;;;;;;8.30;7.50;;;;;;;;;;7329993;19;161967;-15
2022/01/30 13:43:20;;;;;;;9.32;8.10;;;;;;;;;;7328570;19;162500;-16
2022/01/30 13:48:37;;;;;;;8.00;7.20;;;;;;;;;;7329949;19;153550;-14
2022/01/30 13:51:11;;;;;;;9.48;7.22;;;;;;;;;;7328803;19;161794;-15
2022/01/30 13:53:42;;;;;;;9.20;8.18;;;;;;;;;;7329563;19;162406;-15
2022/01/30 13:56:16;;;;;;;8.00;7.20;;;;;;;;;;7328648;19;153958;-15
2022/01/30 13:58:51;;;;;;;8.40;7.60;;;;;;;;;;7327990;19;153768;-15
2022/01/30 14:01:24;;;;;;;8.80;7.97;;;;;;;;;;7329261;19;161820;-16
2022/01/30 14:04:09;;;;;;;9.57;7.80;;;;;;;;;;7329182;19;162441;-14
2022/01/30 14:06:49;;;;;;;8.93;8.02;;;;;;;;;;7329594;19;154219;-14
2022/01/30 14:09:25;;;;;;;8.25;7.45;;;;;;;;;;7328924;19;153682;-15
2022/01/30 14:12:09;;;;;;;8.57;7.68;;;;;;;;;;7328642;19;161770;-14
2022/01/30 14:14:43;;;;;;;8.10;7.30;;;;;;;;;;7328756;19;162338;-14
2022/01/30 14:17:15;;;;;;;8.52;7.72;;;;;;;;;;7328985;19;153925;-14
2022/01/30 14:19:52;;;;;;;8.55;7.72;;;;;;;;;;7325049;19;153562;-15
2022/01/30 14:22:33;;;;;;;7.88;7.15;;;;;;;;;;7328359;19;162071;-14
2022/01/30 14:25:08;;;;;;;7.70;6.90;;;;;;;;;;7328240;19;162381;-16
2022/01/30 14:27:41;;;;;;;8.02;7.22;;;;;;;;;;7325782;19;153734;-13
2022/01/30 14:30:13;;;;;;;8.10;7.32;;;;;;;;;;7328251;19;153938;-14
2022/01/30 14:32:44;;;;;;;8.57;7.38;;;;;;;;;;7328103;19;161805;-13
2022/01/30 14:35:15;;;;;;;7.95;7.15;;;;;;;;;;7326925;19;162511;-14
2022/01/30 14:37:51;;;;;;;9.25;7.95;;;;;;;;;;7328409;19;154005;-14
2022/01/30 14:40:22;;;;;;;8.18;7.38;;;;;;;;;;7325273;19;153533;-14
2022/01/30 14:42:53;;;;;;;7.88;7.10;;;;;;;;;;7327852;19;162026;-14
2022/01/30 14:45:25;;;;;;;7.18;6.53;;;;;;;;;;7327839;19;162434;-14
2022/01/30 14:47:56;;;;;;;8.48;7.68;;;;;;;;;;7328218;19;154149;-15
2022/01/30 14:50:27;;;;;;;7.82;7.00;;;;;;;;;;7327967;19;153476;-15
2022/01/30 14:53:02;;;;;;;7.88;7.07;;;;;;;;;;7327343;19;162078;-15
2022/01/30 14:55:33;;;;;;;7.80;7.00;;;;;;;;;;7327411;19;162541;-14
2022/01/30 14:58:05;;;;;;;8.10;7.30;;;;;;;;;;7327722;19;154025;-14
2022/01/30 15:00:37;;;;;;;7.32;6.47;;;;;;;;;;7324938;19;153521;-15
2022/01/30 15:03:08;;;;;;;7.68;6.88;;;;;;;;;;7330303;19;161962;-14
2022/01/30 15:05:39;;;;;;;7.75;6.95;;;;;;;;;;7334099;19;162391;-15
2022/01/30 15:08:15;;;;;;;7.70;6.90;;;;;;;;;;7334522;19;154090;-14
2022/01/30 15:10:47;;;;;;;7.82;7.13;;;;;;;;;;7334292;19;153518;-14
2022/01/30 15:13:21;;;;;;;7.97;7.25;;;;;;;;;;7332587;19;162399;-15
2022/01/30 15:15:55;;;;;;;8.57;7.40;;;;;;;;;;7333715;19;162579;-14
2022/01/30 15:18:34;;;;;;;7.95;7.15;;;;;;;;;;7333962;19;153960;-14
2022/01/30 15:21:05;;;;;;;7.65;6.85;;;;;;;;;;7334033;19;153472;-14
2022/01/30 15:23:39;;;;;;;7.65;6.85;;;;;;;;;;7333409;19;161896;-13
2022/01/30 15:26:11;;;;;;;7.68;6.97;;;;;;;;;;7332195;19;162603;-14
2022/01/30 15:28:42;;;;;;;7.45;6.75;;;;;;;;;;7334123;19;153982;-14
2022/01/30 15:31:13;;;;;;;7.00;6.35;;;;;;;;;;7333592;19;153536;-14
2022/01/30 15:33:45;;;;;;;7.10;6.40;;;;;;;;;;7333108;19;161961;-13
2022/01/30 15:36:16;;;;;;;6.70;6.10;;;;;;;;;;7332993;19;162477;-14
2022/01/30 15:38:50;;;;;;;7.43;6.35;;;;;;;;;;7333327;19;154031;-14
2022/01/30 15:41:23;;;;;;;7.43;6.72;;;;;;;;;;7332783;19;153756;-14
2022/01/30 15:43:56;;;;;;;6.95;6.35;;;;;;;;;;7331600;19;162053;-14
2022/01/30 15:49:11;;;;;;;7.07;6.38;;;;;;;;;;7333082;19;154023;-14
2022/01/30 15:51:44;;;;;;;7.18;6.47;;;;;;;;;;7329518;19;153740;-15
2022/01/30 15:54:22;;;;;;;6.97;6.28;;;;;;;;;;7330330;19;162031;-14
2022/01/30 15:56:55;;;;;;;6.60;6.00;;;;;;;;;;7332851;19;162679;-14
2022/01/30 15:59:26;;;;;;;7.40;6.18;;;;;;;;;;7332525;19;154257;-14
2022/01/30 16:01:57;;;;;;;6.53;5.82;;;;;;;;;;7332919;19;153571;-15
2022/01/30 16:04:29;;;;;;;7.28;6.57;;;;;;;;;;7332602;19;162188;-14
2022/01/30 16:07:00;;;;;;;6.50;5.90;;;;;;;;;;7332500;19;162346;-14
2022/01/30 16:09:34;;;;;;;6.82;6.18;;;;;;;;;;7333017;19;153990;-15
2022/01/30 16:12:34;;;;;;;6.78;5.82;;;;;;;;;;7332692;19;153516;-15
2022/01/30 16:17:49;;;;;;;6.85;6.13;;;;;;;;;;7331102;19;162749;-14
2022/01/30 16:20:20;;;;;;;6.60;5.97;;;;;;;;;;7331000;19;153965;-14
2022/01/30 16:22:52;;;;;;;6.60;6.00;;;;;;;;;;7332492;19;153601;-15
2022/01/30 16:25:26;;;;;;;6.80;6.10;;;;;;;;;;7331932;19;161813;-14
2022/01/30 16:27:57;;;;;;;6.60;6.00;;;;;;;;;;7329217;19;162761;-19
2022/01/30 16:30:28;;;;;;;6.45;5.85;;;;;;;;;;7332161;19;153923;-14
2022/01/30 16:33:00;;;;;;;7.00;6.30;;;;;;;;;;7331810;19;153667;-14
2022/01/30 16:35:32;;;;;;;6.13;5.57;;;;;;;;;;7331873;19;161811;-14
2022/01/30 16:38:05;;;;;;;8.00;5.88;;;;;;;;;;7331456;19;163119;-15
2022/01/30 16:40:39;;;;;;;6.32;5.80;;;;;;;;;;7330621;19;154078;-14
2022/01/30 16:43:21;;;;;;;6.30;5.70;;;;;;;;;;7331697;19;153638;-14
2022/01/30 16:45:59;;;;;;;6.40;5.80;;;;;;;;;;7331545;19;161808;-14
2022/01/30 16:48:30;;;;;;;6.20;5.60;;;;;;;;;;7331332;19;162575;-14
2022/01/30 16:51:03;;;;;;;6.30;5.70;;;;;;;;;;7331598;19;154187;-14
2022/01/30 16:53:35;;;;;;;;;;;;;;;;;;7331869;19;153614;-14
2022/01/30 16:56:09;;;;;;;6.10;5.50;;;;;;;;;;7331044;19;161994;-14
2022/01/30 16:58:41;;;;;;;6.60;6.00;;;;;;;;;;7331053;19;162563;-14
2022/01/30 17:01:12;;;;;;;6.18;5.55;;;;;;;;;;7329180;19;154068;-14
2022/01/30 17:03:44;;;;;;;6.30;5.70;;;;;;;;;;7331268;19;153561;-15
2022/01/30 17:06:16;;;;;;;6.57;5.97;;;;;;;;;;7329388;19;162356;-14
2022/01/30 17:08:50;;;;;;;7.18;5.40;;;;;;;;;;7331018;19;162343;-16
2022/01/30 17:11:24;;;;;;;5.55;5.05;;;;;;;;;;7329682;19;154168;-13
2022/01/30 17:13:55;;;;;;;6.32;5.72;;;;;;;;;;7334269;19;153641;-14
2022/01/30 17:16:26;;;;;;;5.80;5.30;;;;;;;;;;7330077;19;161895;-13
2022/01/30 17:18:57;;;;;;;5.88;5.22;;;;;;;;;;7329950;19;162347;-14
2022/01/30 17:21:29;;;;;;;6.00;5.40;;;;;;;;;;7328410;19;154347;-14
2022/01/30 17:24:01;;;;;;;5.05;4.55;;;;;;;;;;7330170;19;153901;-15
2022/01/30 17:26:35;;;;;;;6.25;5.25;;;;;;;;;;7329714;19;161930;-13
2022/01/30 17:29:06;;;;;;;5.90;5.40;;;;;;;;;;7329826;19;162673;-13
2022/01/30 17:31:37;;;;;;;5.60;5.10;;;;;;;;;;7329113;19;154277;-13
2022/01/30 17:34:09;;;;;;;5.80;5.30;;;;;;;;;;7331371;19;153779;-13
2022/01/30 17:36:40;;;;;;;8.23;5.78;;;;;;;;;;7331604;19;161815;-14
2022/01/30 17:39:11;;;;;;;5.82;5.15;;;;;;;;;;7334170;19;162360;-14
2022/01/30 17:41:45;;;;;;;5.75;4.68;;;;;;;;;;7330134;19;154254;-13
2022/01/30 17:44:17;;;;;;;6.88;5.40;;;;;;;;;;7332386;19;153577;-14
2022/01/30 17:46:48;;;;;;;5.35;4.85;;;;;;;;;;7330609;19;162461;-14
2022/01/30 17:49:20;;;;;;;5.20;4.73;;;;;;;;;;7331314;19;162385;-14
2022/01/30 17:51:52;;;;;;;8.10;4.85;;;;;;;;;;7333727;19;154348;-14
2022/01/30 17:54:23;;;;;;;7.10;5.20;;;;;;;;;;7329785;19;153504;-14
2022/01/30 17:56:57;;;;;;;6.00;5.10;;;;;;;;;;7331627;19;162024;-14
2022/01/30 17:59:29;;;;;;;5.03;4.53;;;;;;;;;;7329061;19;162319;-14
2022/01/30 18:02:00;;;;;;;7.15;4.72;;;;;;;;;;7325537;19;154044;-13
2022/01/30 18:04:34;;;;;;;5.80;5.20;;;;;;;;;;7330566;19;153954;-14
2022/01/30 18:07:08;;;;;;;8.25;5.72;;;;;;;;;;7330383;19;161859;-13
2022/01/30 18:09:40;;;;;;;7.53;5.65;;;;;;;;;;7328772;19;162562;-14
2022/01/30 18:12:15;;;;;;;7.20;5.82;;;;;;;;;;7330415;19;153936;-14
2022/01/30 18:14:46;;;;;;;6.00;5.47;;;;;;;;;;7330254;19;153472;-14
2022/01/30 18:17:18;;;;;;;6.05;5.45;;;;;;;;;;7330256;19;161922;-14
2022/01/30 18:19:49;;;;;;;5.70;5.20;;;;;;;;;;7331742;19;162470;-14
2022/01/30 18:22:23;;;;;;;5.30;4.82;;;;;;;;;;7329523;19;153992;-14
2022/01/30 18:24:54;;;;;;;6.10;5.40;;;;;;;;;;7330791;19;153963;-14
2022/01/30 18:27:28;;;;;;;6.20;5.57;;;;;;;;;;7327089;19;161763;-16
2022/01/30 18:29:59;;;;;;;5.95;5.35;;;;;;;;;;7330980;19;162276;-14
2022/01/30 18:32:31;;;;;;;6.18;5.57;;;;;;;;;;7331259;19;153977;-14
2022/01/30 18:35:02;;;;;;;8.48;5.68;;;;;;;;;;7331608;19;153514;-14
2022/01/30 18:37:37;;;;;;;5.70;4.57;;;;;;;;;;7332583;19;161857;-14
2022/01/30 18:40:24;;;;;;;5.68;5.07;;;;;;;;;;7337482;19;162348;-14
2022/01/30 18:42:57;;;;;;;5.75;5.15;;;;;;;;;;7336079;19;154317;-14
2022/01/30 18:45:30;;;;;;;5.93;5.32;;;;;;;;;;7338008;19;153561;-14
2022/01/30 18:48:01;;;;;;;5.35;4.85;;;;;;;;;;7337787;19;161774;-14
2022/01/30 18:50:33;;;;;;;5.90;4.78;;;;;;;;;;7337657;19;162352;-15
2022/01/30 18:53:04;;;;;;;5.47;4.97;;;;;;;;;;7338394;19;154276;-14
2022/01/30 18:55:36;;;;;;;5.70;5.20;;;;;;;;;;7337564;19;153861;-14
2022/01/30 18:58:12;;;;;;;5.90;5.15;;;;;;;;;;7337499;19;161824;-14
2022/01/30 19:00:43;;;;;;;5.60;5.00;;;;;;;;;;7329994;19;162138;-15
2022/01/30 19:03:15;;;;;;;5.85;5.25;;;;;;;;;;7333692;19;154136;-14
2022/01/30 19:05:49;;;;;;;5.28;4.78;;;;;;;;;;7333054;19;155406;-14
2022/01/30 19:08:20;;;;;;;9.30;6.20;;;;;;;;;;7332304;19;162007;-32
2022/01/30 19:10:52;;;;;;;6.18;5.05;;;;;;;;;;7334905;19;162517;-15
2022/01/30 19:13:26;;;;;;;5.47;4.97;;;;;;;;;;7334860;19;153972;-15
2022/01/30 19:15:58;;;;;;;5.68;5.18;;;;;;;;;;7337607;19;153512;-14
2022/01/30 19:18:30;;;;;;;4.85;4.38;;;;;;;;;;7336599;19;161927;-15
2022/01/30 19:21:01;;;;;;;7.03;4.85;;;;;;;;;;7337452;19;162359;-15
2022/01/30 19:23:32;;;;;;;4.80;4.40;;;;;;;;;;7334705;19;153957;-14
2022/01/30 19:26:04;;;;;;;4.82;4.43;;;;;;;;;;7334229;19;153636;-15
2022/01/30 19:28:39;;;;;;;6.30;4.50;;;;;;;;;;7336477;19;161933;-14
2022/01/30 19:31:11;;;;;;;4.88;3.72;;;;;;;;;;7334337;19;162335;-15
2022/01/30 19:33:42;;;;;;;4.70;4.05;;;;;;;;;;7333649;19;154192;-15
2022/01/30 19:36:14;;;;;;;4.00;3.70;;;;;;;;;;7333284;19;153575;-14
2022/01/30 19:38:46;;;;;;;3.83;3.47;;;;;;;;;;7334418;19;163518;-14
2022/01/30 19:41:18;;;;;;;4.00;3.60;;;;;;;;;;7332659;19;162472;-15
2022/01/30 19:43:52;;;;;;;4.13;3.83;;;;;;;;;;7332605;19;154096;-14
2022/01/30 19:46:24;;;;;;;4.20;3.80;;;;;;;;;;7336940;19;153553;-14
2022/01/30 19:48:55;;;;;;;4.05;3.60;;;;;;;;;;7330608;19;161954;-14
2022/01/30 19:51:27;;;;;;;3.97;3.30;;;;;;;;;;7331517;19;162501;-14
2022/01/30 19:53:58;;;;;;;3.90;3.60;;;;;;;;;;7335011;19;154082;-14
2022/01/30 19:56:32;;;;;;;4.07;3.50;;;;;;;;;;7332859;19;153500;-14
2022/01/30 19:59:07;;;;;;;4.03;3.50;;;;;;;;;;7331459;19;162116;-14
2022/01/30 20:01:39;;;;;;;4.10;3.80;;;;;;;;;;7333195;19;162565;-15
2022/01/30 20:04:10;;;;;;;4.95;3.58;;;;;;;;;;7331650;19;154078;-14
2022/01/30 20:06:42;;;;;;;7.40;3.20;;;;;;;;;;7333057;19;153502;-14
2022/01/30 20:09:13;;;;;;;3.75;3.45;;;;;;;;;;7331453;19;161870;-14
2022/01/30 20:11:45;;;;;;;3.50;3.20;;;;;;;;;;7335088;19;163085;-14
2022/01/30 20:14:24;;;;;;;3.83;3.25;;;;;;;;;;7335925;19;153950;-15
2022/01/30 20:16:56;;;;;;;4.20;3.58;;;;;;;;;;7333193;19;153857;-15
2022/01/30 20:19:27;;;;;;;4.22;3.90;;;;;;;;;;7335573;19;162051;-15
2022/01/30 20:21:59;;;;;;;4.38;3.97;;;;;;;;;;7333078;19;162429;-15
2022/01/30 20:24:32;;;;;;;3.97;3.55;;;;;;;;;;7333450;19;154031;-15
2022/01/30 20:27:04;;;;;;;3.80;3.40;;;;;;;;;;7332859;19;153588;-16
2022/01/30 20:29:38;;;;;;;4.28;3.88;;;;;;;;;;7335218;19;162026;-15
2022/01/30 20:32:12;;;;;;;5.88;5.07;;;;;;;;;;7334304;19;162540;-16
2022/01/30 20:34:44;;;;;;;5.10;4.63;;;;;;;;;;7334976;19;154309;-16
2022/01/30 20:37:17;;;;;;;5.20;4.55;;;;;;;;;;7334962;19;153499;-16
2022/01/30 20:39:49;;;;;;;5.28;4.75;;;;;;;;;;7334667;19;161732;-15
2022/01/30 20:42:33;;;;;;;5.40;4.65;;;;;;;;;;7334194;19;163184;-15
2022/01/30 20:45:11;;;;;;;5.05;4.57;;;;;;;;;;7334062;19;154048;-15
2022/01/30 20:47:43;;;;;;;4.60;4.00;;;;;;;;;;7334143;19;153568;-16
2022/01/30 20:50:16;;;;;;;4.88;4.47;;;;;;;;;;7334219;19;162004;-14
2022/01/30 20:52:47;;;;;;;5.00;4.50;;;;;;;;;;7333249;19;162509;-15
2022/01/30 20:55:19;;;;;;;6.50;4.78;;;;;;;;;;7334663;19;154122;-15
2022/01/30 20:57:50;;;;;;;5.25;4.53;;;;;;;;;;7334179;19;153540;-14
2022/01/30 21:00:25;;;;;;;4.55;4.00;;;;;;;;;;7330651;19;162242;-15
2022/01/30 21:02:56;;;;;;;5.07;4.10;;;;;;;;;;7330269;19;162525;-14
2022/01/30 21:05:33;;;;;;;5.18;4.68;;;;;;;;;;7333067;19;154155;-15
2022/01/30 21:08:06;;;;;;;4.88;4.32;;;;;;;;;;7332192;19;153501;-15
2022/01/30 21:10:41;;;;;;;7.72;5.28;;;;;;;;;;7333724;19;161828;-15
2022/01/30 21:13:16;;;;;;;5.45;4.68;;;;;;;;;;7328719;19;162515;-15
2022/01/30 21:15:53;;;;;;;5.00;4.55;;;;;;;;;;7330104;19;154095;-14
2022/01/30 21:18:25;;;;;;;5.47;4.95;;;;;;;;;;7330243;19;153579;-14
2022/01/30 21:20:57;;;;;;;5.28;4.32;;;;;;;;;;7332354;19;161892;-15
2022/01/30 21:23:28;;;;;;;4.90;4.40;;;;;;;;;;7330862;19;162567;-14
2022/01/30 21:25:59;;;;;;;5.13;4.60;;;;;;;;;;7329646;19;153911;-14
2022/01/30 21:28:30;;;;;;;6.25;5.05;;;;;;;;;;7332748;19;153912;-15
2022/01/30 21:31:04;;;;;;;4.72;3.97;;;;;;;;;;7329749;19;162012;-14
2022/01/30 21:33:36;;;;;;;5.28;4.65;;;;;;;;;;7330351;19;162405;-19
2022/01/30 21:36:08;;;;;;;4.72;4.22;;;;;;;;;;7329918;19;154068;-14
2022/01/30 21:38:39;;;;;;;5.78;4.53;;;;;;;;;;7327268;19;153789;-14
2022/01/30 21:41:10;;;;;;;5.00;4.60;;;;;;;;;;7332672;19;162119;-14
2022/01/30 21:43:42;;;;;;;5.43;4.90;;;;;;;;;;7330686;19;162575;-14
2022/01/30 21:46:17;;;;;;;4.93;4.53;;;;;;;;;;7331714;19;153988;-14
2022/01/30 21:48:49;;;;;;;5.78;5.18;;;;;;;;;;7329730;19;153982;-14
2022/01/30 21:51:20;;;;;;;5.20;4.27;;;;;;;;;;7332250;19;161826;-14
2022/01/30 21:53:51;;;;;;;5.55;4.90;;;;;;;;;;7330771;19;162647;-15
2022/01/30 21:56:23;;;;;;;8.18;6.28;;;;;;;;;;7332548;19;154038;-15
2022/01/30 21:58:55;;;;;;;7.75;5.18;;;;;;;;;;7331892;19;153842;-16
2022/01/30 22:01:30;;;;;;;11.52;7.25;;;;;;;;;;7326071;19;161930;-14
2022/01/30 22:04:01;;;;;;;8.35;6.28;;;;;;;;;;7330705;19;162697;-14
2022/01/30 22:06:33;;;;;;;8.77;6.30;;;;;;;;;;7329162;19;154134;-13
2022/01/30 22:09:04;;;;;;;7.00;6.25;;;;;;;;;;7330728;19;153738;-14
2022/01/30 22:11:39;;;;;;;8.32;6.15;;;;;;;;;;7330148;19;161933;-14
2022/01/30 22:14:24;;;;;;;8.02;5.70;;;;;;;;;;7332659;19;162328;-13
2022/01/30 22:16:58;;;;;;;9.30;6.03;;;;;;;;;;7331835;19;153919;-13
2022/01/30 22:19:29;;;;;;;8.38;6.05;;;;;;;;;;7330013;19;153882;-13
2022/01/30 22:22:01;;;;;;;5.72;5.00;;;;;;;;;;7331840;19;161819;-13
2022/01/30 22:24:32;;;;;;;6.13;5.05;;;;;;;;;;7330113;19;162483;-13
2022/01/30 22:27:03;;;;;;;6.03;5.43;;;;;;;;;;7326925;19;154155;-13
2022/01/30 22:29:37;;;;;;;6.63;5.40;;;;;;;;;;7328592;19;153535;-13
2022/01/30 22:32:12;;;;;;;6.40;5.18;;;;;;;;;;7328194;19;161829;-14
2022/01/30 22:34:43;;;;;;;6.25;5.18;;;;;;;;;;7328158;19;162450;-14
2022/01/30 22:37:15;;;;;;;7.40;5.85;;;;;;;;;;7328436;19;153948;-13
2022/01/30 22:39:49;;;;;;;6.53;5.03;;;;;;;;;;7331888;19;153656;-13
2022/01/30 22:42:20;;;;;;;6.35;5.28;;;;;;;;;;7327852;19;162032;-14
2022/01/30 22:44:51;;;;;;;5.97;5.18;;;;;;;;;;7326404;19;162557;-13
2022/01/30 22:47:28;;;;;;;7.75;5.63;;;;;;;;;;7328250;19;153991;-14
2022/01/30 22:49:59;;;;;;;5.80;5.13;;;;;;;;;;7328287;19;153567;-14
2022/01/30 22:52:30;;;;;;;6.43;5.35;;;;;;;;;;7327622;19;162128;-13
2022/01/30 22:55:02;;;;;;;6.57;5.10;;;;;;;;;;7327511;19;162707;-14
2022/01/30 22:57:33;;;;;;;6.10;5.50;;;;;;;;;;7326620;19;154685;-14
2022/01/30 23:00:06;;;;;;;5.78;5.25;;;;;;;;;;7327764;19;153501;-13
2022/01/30 23:02:40;;;;;;;5.93;5.30;;;;;;;;;;7325918;19;161779;-14
2022/01/30 23:05:12;;;;;;;6.25;5.15;;;;;;;;;;7325716;19;162323;-14
2022/01/30 23:07:43;;;;;;;6.93;4.63;;;;;;;;;;7327787;19;154004;-14
2022/01/30 23:10:15;;;;;;;5.55;5.05;;;;;;;;;;7326217;19;153540;-13
2022/01/30 23:12:47;;;;;;;6.45;5.00;;;;;;;;;;7330289;19;161794;-14
2022/01/30 23:15:18;;;;;;;5.90;4.72;;;;;;;;;;7326048;19;162667;-14
2022/01/30 23:17:53;;;;;;;4.68;4.20;;;;;;;;;;7325861;19;155392;-14
2022/01/30 23:20:26;;;;;;;6.28;5.40;;;;;;;;;;7328791;19;153333;-14
2022/01/30 23:22:59;;;;;;;5.97;4.82;;;;;;;;;;7325293;19;161915;-14
2022/01/30 23:25:33;;;;;;;5.28;4.72;;;;;;;;;;7330889;19;162546;-14
2022/01/30 23:28:03;;;;;;;;;;;;;;;;;;7330732;19;154013;-13
2022/01/30 23:30:35;;;;;;;6.07;4.70;;;;;;;;;;7337315;19;153437;-14
2022/01/30 23:33:09;;;;;;;6.28;5.13;;;;;;;;;;7337385;19;162589;-13
2022/01/30 23:35:41;;;;;;;5.40;4.85;;;;;;;;;;7332249;19;162635;-14
2022/01/30 23:38:16;;;;;;;5.00;4.50;;;;;;;;;;7331875;19;153835;-15
2022/01/30 23:40:50;;;;;;;6.93;4.50;;;;;;;;;;7332779;19;153511;-15
2022/01/30 23:43:24;;;;;;;5.30;4.80;;;;;;;;;;7332982;19;161794;-14
2022/01/30 23:45:58;;;;;;;5.15;4.65;;;;;;;;;;7333959;19;162341;-14
2022/01/30 23:48:32;;;;;;;4.75;4.35;;;;;;;;;;7331321;19;153946;-13
2022/01/30 23:51:04;;;;;;;4.68;4.28;;;;;;;;;;7336060;19;153581;-15
2022/01/30 23:53:36;;;;;;;5.67;4.57;;;;;;;;;;7325632;19;161960;-14
2022/01/30 23:56:08;;;;;;;5.30;4.80;;;;;;;;;;7327363;19;162433;-14
2022/01/30 23:58:39;;;;;;;5.00;4.50;;;;;;;;;;7317137;19;154224;-15
